KMLB

Melbourne International Airport

Melbourne, Florida, USA
KMLB 192329Z 2000/2024 10007KT P6SM FEW025 BKN090 FM200300 VRB02KT P6SM SCT250 FM201400 28005KT P6SM SCT040 FM201800 01008KT P6SM SCT050 FM202000 06008KT P6SM SCT050
Issued Valid From Valid To
Oct-19 @ 23:29 UTC
(4 hours ago)
Oct-20 @ 00:00 UTC
(3 hours ago)
Oct-21 @ 00:00 UTC
(in 21 hours)
Expired Click to View Oct-20 @ 00:00 to Oct-20 @ 03:00
KMLB 192329Z 2000/2024 10007KT P6SM FEW025 BKN090
Wind Visibility Clouds
100° at 7 knots Greater than 6 miles
  • Few at 2,500' AGL
  • Broken at 9,000' AGL
From Oct-20 @ 03:00 to Oct-20 @ 14:00
FM200300 VRB02KT P6SM SCT250
Wind Visibility Clouds
Variable at 2 knots Greater than 6 miles
  • Scattered at 25,000' AGL
From Oct-20 @ 14:00 to Oct-20 @ 18:00
FM201400 28005KT P6SM SCT040
Wind Visibility Clouds
280° at 5 knots Greater than 6 miles
  • Scattered at 4,000' AGL
From Oct-20 @ 18:00 to Oct-20 @ 20:00
FM201800 01008KT P6SM SCT050
Wind Visibility Clouds
10° at 8 knots Greater than 6 miles
  • Scattered at 5,000' AGL
From Oct-20 @ 20:00 to Oct-21 @ 00:00
FM202000 06008KT P6SM SCT050
Wind Visibility Clouds
60° at 8 knots Greater than 6 miles
  • Scattered at 5,000' AGL
KMLB 192329Z 2000/2024 10007KT P6SM FEW025 BKN090 FM200300 VRB02KT P6SM SCT250 FM201400 28005KT P6SM SCT040 FM201800 01008KT P6SM SCT050 FM202000 06008KT P6SM SCT050
Issued Oct-19 @ 23:29 UTC
(4 hours ago)
Valid From Oct-20 @ 00:00 UTC
(3 hours ago)
Valid To Oct-21 @ 00:00 UTC
(in 21 hours)
Oct-20 @ 00:00 - Oct-20 @ 03:00
Wind Visibility
100° at 7 knots Greater than 6 miles
Clouds
  • Few at 2,500' AGL
  • Broken at 9,000' AGL
From Oct-20 @ 03:00 - Oct-20 @ 14:00
Wind Visibility
Variable at 2 knots Greater than 6 miles
Clouds
  • Scattered at 25,000' AGL
From Oct-20 @ 14:00 - Oct-20 @ 18:00
Wind Visibility
280° at 5 knots Greater than 6 miles
Clouds
  • Scattered at 4,000' AGL
From Oct-20 @ 18:00 - Oct-20 @ 20:00
Wind Visibility
10° at 8 knots Greater than 6 miles
Clouds
  • Scattered at 5,000' AGL
From Oct-20 @ 20:00 - Oct-21 @ 00:00
Wind Visibility
60° at 8 knots Greater than 6 miles
Clouds
  • Scattered at 5,000' AGL